KROA/ROA METAR and TAF weather

Enter ICAO airport designator
Station Type Date Time Source
KROA METAR 2019/12/12 16:54 UTC NOAA

KROA 121654Z 17007KT 130V190 10SM CLR 02/M07 A3065 RMK AO2 SLP389 T00221067


Station Type Date Time Source
KROA Decoded METAR 2019/12/12 16:54 UTC NOAA

ROANOKE REGIONAL AIRPORT, VA, United States (KROA) 37-19N 079-58W 362M
Dec 12, 2019 - 11:54 AM EST / 2019.12.12 1654 UTC
Wind: from the S (170 degrees) at 8 MPH (7 KT) (direction variable):0
Visibility: 10 mile(s):0
Sky conditions: clear
Temperature: 36.0 F (2.2 C)
Dew Point: 19.9 F (-6.7 C)
Relative Humidity: 51%
Pressure (altimeter): 30.65 in. Hg (1037 hPa)
ob: KROA 121654Z 17007KT 130V190 10SM CLR 02/M07 A3065 RMK AO2 SLP389 T00221067
cycle: 17

Station Type Date Time Source
KROA TAF 2019/12/12 12:22 UTC NOAA

TAF KROA 121120Z 1212/1312 VRB04KT P6SM SKC
FM130400 VRB04KT P6SM BKN250
FM130600 VRB04KT P6SM OVC090
FM130900 VRB04KT 4SM -FZRA OVC010

Example: see airport list